METAR stanice u blizini

 

LYNI - Nis, Yugoslavia
Distance from station: JZ 40km
Ažurirano: 21/05/2022 01:00
Vedro
Vedro
 Pravac vetra JI
Vetar: JI 7 km/h
Temperatura: 10°C
Osećaj hladnoće: 9°C
Tačka rose: 3°C
Vlažnost: 62%
Pritisak: 1021 hPa
Pregled: Vedro
Vidljivost: greater than 10 km
2022/05/20 23:00 LYNI 202300Z 13004KT CAVOK 10/03 Q1021 NOSIG
LYKV - Kraljevo, Yugoslavia
Distance from station: ZSZ 136km
Ažurirano: 21/05/2022 01:00
Vedro
Vedro
 Pravac vetra varies
Vetar: varies 2 km/h
Temperatura: 9°C
Tačka rose: 6°C
Vlažnost: 82%
Pritisak: 1020 hPa
Pregled: Vedro
Vidljivost: greater than 10 km
2022/05/20 23:00 LYKV 202300Z VRB01KT CAVOK 09/06 Q1020 NOSIG
LBSF - Sofia (observato, Bulgaria
Distance from station: JI 138km
Ažurirano: 21/05/2022 01:00
Delimično oblačno
Delimično oblačno
 Pravac vetra JJI
Vetar: JJI 7 km/h
Temperatura: 10°C
Osećaj hladnoće: 9°C
Tačka rose: 6°C
Vlažnost: 76%
Pritisak: 1021 hPa
Oblaci: Delimično oblačno
Vidljivost: 10 km
2022/05/20 23:00 LBSF 202300Z AUTO 16004KT 9999 NSC 10/06 Q1021 NOSIG
 
BKPR - Prishtina, Yugoslavia
Distance from station: JZ 147km
Ažurirano: 21/05/2022 01:30
Vedro
Vedro
 Pravac vetra calm
Vetar: Tišina
Temperatura: 10°C
Tačka rose: 4°C
Vlažnost: 67%
Pritisak: 1022 hPa
Pregled: Vedro
Vidljivost: greater than 10 km
2022/05/20 23:30 BKPR 202330Z 00000KT CAVOK 10/04 Q1022 NOSIG
LRCV - Craiova, Romania
Distance from station: SI 154km
Ažurirano: 21/05/2022 01:00
Vedro
Vedro
 Pravac vetra JZ
Vetar: JZ 11 km/h
Temperatura: 16°C
Tačka rose: 5°C
Vlažnost: 48%
Pritisak: 1018 hPa
Pregled: Vedro
Vidljivost: greater than 10 km
2022/05/20 23:00 LRCV 202300Z 22006KT CAVOK 16/05 Q1018
LWSK - Skopje/Petrovac, Macedonia
Distance from station: JJZ 185km
Ažurirano: 21/05/2022 01:00
Vedro
Vedro
 Pravac vetra calm
Vetar: Tišina
Temperatura: 11°C
Tačka rose: 5°C
Vlažnost: 67%
Pritisak: 1021 hPa
Pregled: Vedro
Vidljivost: greater than 10 km
2022/05/20 23:00 LWSK 202300Z 00000KT CAVOK 11/05 Q1021 NOSIG
 
LYVR - Vrsac, Yugoslavia
Distance from station: SSZ 189km
Ažurirano: 21/05/2022 01:00
Vedro
Vedro
 Pravac vetra J
Vetar: J 13 km/h
Temperatura: 21°C
Tačka rose: 1°C
Vlažnost: 27%
Pritisak: 1018 hPa
Pregled: Vedro
Vidljivost: greater than 10 km
2022/05/20 23:00 LYVR 202300Z AUTO 17007KT 160V220 CAVOK 21/01 Q1018
LYUZ - Uzice-Ponikve, Yugoslavia
Distance from station: Z 207km
Ažurirano: 04/11/2021 00:30
NOT Current

 Pravac vetra varies
Vetar: varies 9 km/h
Temperatura: 14°C
Tačka rose: 7°C
Vlažnost: 63%
Pritisak: 1010 hPa
Vidljivost: 10 km
2021/11/03 23:30 LYUZ 032330Z AUTO VRB05KT 9999 ////// 14/07 Q1010
LYBE - Belgrade/Surcin, Yugoslavia
Distance from station: SZ 209km
Ažurirano: 21/05/2022 01:00
Vedro
Vedro
 Pravac vetra J
Vetar: J 13 km/h
Temperatura: 18°C
Tačka rose: 6°C
Vlažnost: 46%
Pritisak: 1018 hPa
Pregled: Vedro
Vidljivost: greater than 10 km
2022/05/20 23:00 LYBE 202300Z 18007KT CAVOK 18/06 Q1018 NOSIG
 
LYBT - Batajnica, Yugoslavia
Distance from station: SZ 219km
Ažurirano: 21/05/2022 01:00
Vedro
Vedro
 Pravac vetra calm
Vetar: Tišina
Temperatura: 15°C
Tačka rose: 6°C
Vlažnost: 55%
Pritisak: 1018 hPa
Pregled: Vedro
Vidljivost: greater than 10 km
2022/05/20 23:00 LYBT 202300Z 00000KT CAVOK 15/06 Q1018 NOSIG
LRTR - Timisoara/Giarma, Romania
Distance from station: SSZ 260km
Ažurirano: 21/05/2022 01:00
Vedro
Vedro
 Pravac vetra I
Vetar: I 15 km/h
Temperatura: 12°C
Tačka rose: 8°C
Vlažnost: 77%
Pritisak: 1018 hPa
Pregled: Vedro
Vidljivost: greater than 10 km
2022/05/20 23:00 LRTR 202300Z 10008KT CAVOK 12/08 Q1018
LBPD - Plovdiv, Bulgaria
Distance from station: JI 263km
Ažurirano: 21/05/2022 01:00
Vedro
Vedro
 Pravac vetra ZSZ
Vetar: ZSZ 11 km/h
Temperatura: 13°C
Tačka rose: 6°C
Vlažnost: 63%
Pritisak: 1020 hPa
Oblaci: Vedro
Vidljivost: 10 km
2022/05/20 23:00 LBPD 202300Z AUTO 29006KT 9999 NCD 13/06 Q1020
 
LYPG - Podgorica(Titogr, Yugoslavia
Distance from station: ZJZ 278km
Ažurirano: 21/05/2022 01:00
Vedro
Vedro
 Pravac vetra SSZ
Vetar: SSZ 6 km/h
Temperatura: 16°C
Tačka rose: 10°C
Vlažnost: 68%
Pritisak: 1021 hPa
Pregled: Vedro
Vidljivost: greater than 10 km
2022/05/20 23:00 LYPG 202300Z 33003KT CAVOK 16/10 Q1021 NOSIG
LBGO - Gorna Orechovist, Bulgaria
Distance from station: I 285km
Ažurirano: 21/05/2022 01:00
Vedro
Vedro
 Pravac vetra I
Vetar: I 9 km/h
Temperatura: 9°C
Osećaj hladnoće: 7°C
Tačka rose: 9°C
Vlažnost: 100%
Pritisak: 1019 hPa
Oblaci: Vedro
Vidljivost: 10 km
2022/05/20 23:00 LBGO 202300Z AUTO 10005KT 9999 NCD 09/09 Q1019
LRSB - Sibiu/Turnisor, Romania
Distance from station: SSI 286km
Ažurirano: 21/05/2022 01:00
Vedro
Vedro
 Pravac vetra ZJZ
Vetar: ZJZ 11 km/h
Temperatura: 12°C
Tačka rose: 4°C
Vlažnost: 58%
Pritisak: 1020 hPa
Pregled: Vedro
Vidljivost: greater than 10 km
2022/05/20 23:00 LRSB 202300Z 25006KT CAVOK 12/04 Q1020
 
LWOH - Ohrid, Macedonia
Distance from station: JJZ 292km
Ažurirano: 20/05/2022 21:30
NOT Current
Vedro
Vedro
 Pravac vetra I
Vetar: I 6 km/h
Temperatura: 13°C
Tačka rose: 4°C
Vlažnost: 55%
Pritisak: 1024 hPa
Pregled: Vedro
Vidljivost: greater than 10 km
2022/05/20 19:30 LWOH 201930Z 09003KT CAVOK 13/04 Q1024
LQTZ - Tuzla, Yugoslavia
Distance from station: ZSZ 298km
Ažurirano: 21/05/2022 01:00
Vedro
Vedro
 Pravac vetra varies
Vetar: varies 4 km/h
Temperatura: 11°C
Tačka rose: 11°C
Vlažnost: 100%
Pritisak: 1019 hPa
Pregled: Vedro
Vidljivost: greater than 10 km
2022/05/20 23:00 LQTZ 202300Z VRB02KT CAVOK 11/11 Q1019
LRAR - Arad, Romania
Distance from station: SSZ 301km
Ažurirano: 21/05/2022 01:00
Vedro
Vedro
 Pravac vetra JI
Vetar: JI 15 km/h
Temperatura: 14°C
Tačka rose: 7°C
Vlažnost: 63%
Pritisak: 1018 hPa
Oblaci: Vedro
Vidljivost: 10 km
2022/05/20 23:00 LRAR 202300Z AUTO 14008KT 9999 NCD 14/07 Q1018
 
LYTV - Tivat, Yugoslavia
Distance from station: ZJZ 315km
Ažurirano: 21/05/2022 01:00
Vedro
Vedro
 Pravac vetra varies
Vetar: varies 2 km/h
Temperatura: 10°C
Tačka rose: 10°C
Vlažnost: 100%
Pritisak: 1021 hPa
Pregled: Vedro
Vidljivost: greater than 10 km
2022/05/20 23:00 LYTV 202300Z AUTO VRB01KT CAVOK 10/10 Q1021
LATI - Tirana, Albania
Distance from station: JZ 316km
Ažurirano: 21/05/2022 01:20
Vedro
Vedro
 Pravac vetra J
Vetar: J 7 km/h
Temperatura: 12°C
Tačka rose: 9°C
Vlažnost: 82%
Pritisak: 1021 hPa
Pregled: Vedro
Vidljivost: greater than 10 km
2022/05/20 23:20 LATI 202320Z 17004KT CAVOK 12/09 Q1021 NOSIG
LQBK - Banja Luka, Yugoslavia
Distance from station: SZ 426km
Ažurirano: 21/05/2022 01:00
Vedro
Vedro
 Pravac vetra JJZ
Vetar: JJZ 4 km/h
Temperatura: 16°C
Tačka rose: 14°C
Vlažnost: 88%
Pritisak: 1019 hPa
Pregled: Vedro
Vidljivost: greater than 10 km
2022/05/20 23:00 LQBK 202300Z 20002KT CAVOK 16/14 Q1019 NOSIG
 
LDOS - Osijek, Croatia
Distance from station: SSZ 360km
Ažurirano: 21/05/2022 01:00
Vedro
Vedro
 Pravac vetra JJZ
Vetar: JJZ 11 km/h
Temperatura: 15°C
Tačka rose: 11°C
Vlažnost: 77%
Pritisak: 1017 hPa
Pregled: Vedro
Vidljivost: greater than 10 km
2022/05/20 23:00 LDOS 202300Z 20006KT CAVOK 15/11 Q1017
LDDU - Dubrovnik-Cilipi, Croatia
Distance from station: JZ 352km
Ažurirano: 21/05/2022 01:00
Vedro
Vedro
 Pravac vetra JI
Vetar: JI 9 km/h
Temperatura: 16°C
Tačka rose: 8°C
Vlažnost: 59%
Pritisak: 1021 hPa
Pregled: Vedro
Vidljivost: greater than 10 km
2022/05/20 23:00 LDDU 202300Z 14005KT 120V250 CAVOK 16/08 Q1021
LQMO - Mostar Airport, Bosnia-Herzegovina
Distance from station: Z 359km
Ažurirano: 21/05/2022 01:00
Vedro
Vedro
 Pravac vetra varies
Vetar: varies 4 km/h
Temperatura: 13°C
Tačka rose: 5°C
Vlažnost: 59%
Pritisak: 1020 hPa
Pregled: Vedro
Vidljivost: greater than 10 km
2022/05/20 23:00 LQMO 202300Z VRB02KT CAVOK 13/05 Q1020
 
LQSA - Sarajevo/Butmir, Yugoslavia
Distance from station: Z 311km
Ažurirano: 21/05/2022 01:00
Vedro
Vedro
 Pravac vetra varies
Vetar: varies 4 km/h
Temperatura: 11°C
Tačka rose: 6°C
Vlažnost: 72%
Pritisak: 1022 hPa
Pregled: Vedro
Vidljivost: greater than 10 km
2022/05/20 23:00 LQSA 202300Z VRB02KT CAVOK 11/06 Q1022
LDSP - Split/Kastel Sta, Croatia
Distance from station: Z 468km
Ažurirano: 21/05/2022 01:00
Vedro
Vedro
 Pravac vetra ZJZ
Vetar: ZJZ 6 km/h
Temperatura: 17°C
Tačka rose: 10°C
Vlažnost: 64%
Pritisak: 1021 hPa
Pregled: Vedro
Vidljivost: greater than 10 km
2022/05/20 23:00 LDSP 202300Z AUTO 24003KT CAVOK 17/10 Q1021
LDZD - Zadar/Zemunik, Croatia
Distance from station: ZSZ 567km
Ažurirano: 21/05/2022 01:00
Vedro
Vedro
 Pravac vetra SSI
Vetar: SSI 4 km/h
Temperatura: 12°C
Tačka rose: 8°C
Vlažnost: 77%
Pritisak: 1021 hPa
Pregled: Vedro
Vidljivost: greater than 10 km
2022/05/20 23:00 LDZD 202300Z 03002KT CAVOK 12/08 Q1021 NOSIG
 
LDZA - Zagreb/Pleso, Croatia
Distance from station: SZ 555km
Ažurirano: 21/05/2022 01:00
Vedro
Vedro
 Pravac vetra JZ
Vetar: JZ 9 km/h
Temperatura: 17°C
Tačka rose: 10°C
Vlažnost: 64%
Pritisak: 1018 hPa
Pregled: Vedro
Vidljivost: greater than 10 km
2022/05/20 23:00 LDZA 202300Z 23005KT 180V260 CAVOK 17/10 Q1018 NOSIG
LJCE - Cerklje, Slovenia
Distance from station: SZ 680km
Ažurirano: 21/05/2022 01:00
Vedro
Vedro
 Pravac vetra Z
Vetar: Z 15 km/h
Temperatura: 18°C
Tačka rose: 11°C
Vlažnost: 64%
Pritisak: 1018 hPa
Oblaci: Vedro
Vidljivost: 10 km
2022/05/20 23:00 LJCE 202300Z AUTO 27008KT 9999 NCD 18/11 Q1018
LJMB - Maribor, Slovenia
Distance from station: SZ 616km
Ažurirano: 21/05/2022 01:00
Vedro
Vedro
 Pravac vetra JJZ
Vetar: JJZ 9 km/h
Temperatura: 19°C
Tačka rose: 11°C
Vlažnost: 60%
Pritisak: 1017 hPa
Oblaci: Vedro
Vidljivost: 10 km
2022/05/20 23:00 LJMB 202300Z AUTO 20005KT 170V260 9999 NCD 19/11 Q1017
 
LJLJ - Ljubljana/Brnik, Slovenia
Distance from station: SZ 671km
Ažurirano: 21/05/2022 01:00
Vedro
Vedro
 Pravac vetra varies
Vetar: varies 2 km/h
Temperatura: 13°C
Tačka rose: 10°C
Vlažnost: 82%
Pritisak: 1020 hPa
Pregled: Vedro
Vidljivost: greater than 10 km
2022/05/20 23:00 LJLJ 202300Z VRB01KT CAVOK 13/10 Q1020 NOSIG
LDRI - Rijeka, Croatia
Distance from station: SZ 650km
Ažurirano: 21/05/2022 01:00
Vedro
Vedro
 Pravac vetra SZ
Vetar: SZ 2 km/h
Temperatura: 16°C
Tačka rose: 8°C
Vlažnost: 59%
Pritisak: 1021 hPa
Pregled: Vedro
Vidljivost: greater than 10 km
2022/05/20 23:00 LDRI 202300Z 32001KT CAVOK 16/08 Q1021
LDPL - Pula, Croatia
Distance from station: ZSZ 686km
Ažurirano: 21/05/2022 01:00
Vedro
Vedro
 Pravac vetra ISI
Vetar: ISI 7 km/h
Temperatura: 14°C
Tačka rose: 12°C
Vlažnost: 88%
Pritisak: 1021 hPa
Pregled: Vedro
Vidljivost: greater than 10 km
2022/05/20 23:00 LDPL 202300Z 07004KT CAVOK 14/12 Q1021
 
LJPZ - Portorož, Slovenia
Distance from station: ZSZ 720km
Ažurirano: 21/05/2022 01:00
Vedro
Vedro
 Pravac vetra IJI
Vetar: IJI 11 km/h
Temperatura: 14°C
Tačka rose: 10°C
Vlažnost: 77%
Pritisak: 1022 hPa
Oblaci: Vedro
Vidljivost: 10 km
2022/05/20 23:00 LJPZ 202300Z AUTO 11006KT 9999 NCD 14/10 Q1022